Time;durP1;ratioP1;P1;durP2;ratioP2;P2;SDS_P1;SDS_P2;PMS_P1;PMS_P2;Temp;Humidity;BMP_temperature;BMP_pressure;BME280_temperature;BME280_humidity;BME280_pressure;Samples;Min_cycle;Max_cycle;Signal;HPM_P1;HPM_P2
2022/11/19 00:00:24;;;;;;;0.30;0.30;;;7.60;99.90;;;;;;4955248;28;20498;-67
2022/11/19 00:02:53;;;;;;;0.50;0.50;;;7.70;99.90;;;;;;4955468;28;20614;-69
2022/11/19 00:05:19;;;;;;;0.30;0.30;;;7.70;99.90;;;;;;4955205;28;20198;-70
2022/11/19 00:07:44;;;;;;;0.30;0.30;;;7.60;99.90;;;;;;4955226;28;20251;-70
2022/11/19 00:10:10;;;;;;;0.40;0.40;;;7.50;99.90;;;;;;4954988;28;20175;-69
2022/11/19 00:12:54;;;;;;;0.30;0.30;;;7.50;99.90;;;;;;4955236;28;20234;-67
2022/11/19 00:15:20;;;;;;;0.77;0.77;;;7.40;99.90;;;;;;4955100;28;20666;-69
2022/11/19 00:17:46;;;;;;;0.30;0.30;;;7.40;99.90;;;;;;4954935;28;20195;-69
2022/11/19 00:20:13;;;;;;;1.53;1.43;;;7.30;99.90;;;;;;4954883;28;20256;-67
2022/11/19 00:22:40;;;;;;;0.40;0.40;;;7.30;99.90;;;;;;4955084;28;20548;-69
2022/11/19 00:25:06;;;;;;;0.95;0.95;;;7.30;99.90;;;;;;4954955;28;20341;-68
2022/11/19 00:27:32;;;;;;;0.30;0.30;;;7.30;99.90;;;;;;4955194;28;20230;-68
2022/11/19 00:29:58;;;;;;;0.40;0.40;;;7.20;99.90;;;;;;4954847;28;20279;-69
2022/11/19 00:32:24;;;;;;;0.40;0.40;;;7.10;99.90;;;;;;4955106;28;20407;-70
2022/11/19 00:34:49;;;;;;;0.40;0.40;;;7.20;99.90;;;;;;4955066;28;20196;-67
2022/11/19 00:37:15;;;;;;;0.30;0.30;;;7.30;99.90;;;;;;4954896;28;20237;-69
2022/11/19 00:39:40;;;;;;;0.30;0.30;;;7.30;99.90;;;;;;4955095;28;20176;-67
2022/11/19 00:42:06;;;;;;;0.30;0.30;;;7.40;99.90;;;;;;4955378;28;20163;-68
2022/11/19 00:44:32;;;;;;;0.50;0.50;;;7.40;99.90;;;;;;4954927;28;20283;-69
2022/11/19 00:46:57;;;;;;;0.40;0.40;;;7.40;99.90;;;;;;4957143;28;20255;-69
2022/11/19 00:49:23;;;;;;;0.30;0.30;;;7.10;99.90;;;;;;4958103;28;20246;-68
2022/11/19 00:51:49;;;;;;;0.40;0.40;;;7.10;99.90;;;;;;4958284;28;20190;-69
2022/11/19 00:54:14;;;;;;;0.30;0.30;;;7.10;99.90;;;;;;4958352;28;20181;-68
2022/11/19 00:56:40;;;;;;;0.30;0.30;;;7.10;99.90;;;;;;4958089;28;20591;-68
2022/11/19 00:59:06;;;;;;;0.30;0.30;;;7.00;99.90;;;;;;4958061;28;20208;-69
2022/11/19 01:01:32;;;;;;;0.30;0.30;;;6.90;99.90;;;;;;4958238;28;20171;-68
2022/11/19 01:03:57;;;;;;;0.30;0.30;;;6.90;99.90;;;;;;4957960;28;20187;-69
2022/11/19 01:06:24;;;;;;;0.30;0.30;;;6.80;99.90;;;;;;4957893;28;20195;-67
2022/11/19 01:08:51;;;;;;;0.30;0.30;;;6.60;99.90;;;;;;4957797;28;20182;-67
2022/11/19 01:11:24;;;;;;;0.40;0.40;;;6.50;99.90;;;;;;4958100;28;20189;-68
2022/11/19 01:13:50;;;;;;;0.50;0.50;;;6.50;99.90;;;;;;4957971;28;20542;-69
2022/11/19 01:16:22;;;;;;;0.30;0.30;;;6.30;99.90;;;;;;4957451;28;20242;-67
2022/11/19 01:18:48;;;;;;;0.40;0.40;;;6.30;99.90;;;;;;4957826;28;20176;-68
2022/11/19 01:21:16;;;;;;;0.52;0.52;;;6.20;99.90;;;;;;4957944;28;20171;-67
2022/11/19 01:23:43;;;;;;;0.40;0.40;;;6.20;99.90;;;;;;4957741;28;20266;-69
2022/11/19 01:26:10;;;;;;;0.52;0.52;;;6.20;99.90;;;;;;4956291;28;20244;-68
2022/11/19 01:28:35;;;;;;;0.40;0.40;;;6.20;99.90;;;;;;4957558;28;20183;-69
2022/11/19 01:31:09;;;;;;;0.40;0.40;;;6.20;99.90;;;;;;4957513;28;20182;-68
2022/11/19 01:33:35;;;;;;;0.40;0.40;;;6.20;99.90;;;;;;4957341;28;20598;-68
2022/11/19 01:36:04;;;;;;;0.30;0.30;;;6.10;99.90;;;;;;4957282;28;20551;-69
2022/11/19 01:38:30;;;;;;;0.40;0.40;;;6.20;99.90;;;;;;4957405;28;20178;-69
2022/11/19 01:40:57;;;;;;;0.30;0.30;;;6.30;99.90;;;;;;4957466;28;20579;-69
2022/11/19 01:43:39;;;;;;;0.40;0.40;;;6.40;99.90;;;;;;4957446;28;20182;-67
2022/11/19 01:46:05;;;;;;;0.40;0.40;;;6.50;99.90;;;;;;4957387;28;20717;-70
2022/11/19 01:48:34;;;;;;;0.40;0.40;;;6.40;99.90;;;;;;4957136;28;20189;-68
2022/11/19 01:51:06;;;;;;;0.30;0.30;;;6.50;99.90;;;;;;4957375;28;20184;-67
2022/11/19 01:53:34;;;;;;;0.40;0.40;;;6.40;99.90;;;;;;4957284;29;20184;-69
2022/11/19 01:56:03;;;;;;;0.50;0.50;;;6.40;99.90;;;;;;4956988;28;20202;-69
2022/11/19 01:58:42;;;;;;;0.30;0.30;;;6.40;99.90;;;;;;4957316;28;20178;-69
2022/11/19 02:01:09;;;;;;;0.40;0.40;;;6.50;99.90;;;;;;4957029;28;20179;-68
2022/11/19 02:03:38;;;;;;;0.30;0.30;;;6.50;99.90;;;;;;4957148;28;20178;-68
2022/11/19 02:06:05;;;;;;;0.40;0.40;;;6.50;99.90;;;;;;4956753;28;20201;-70
2022/11/19 02:08:36;;;;;;;0.30;0.30;;;6.50;99.90;;;;;;4956726;28;20186;-70
2022/11/19 02:11:28;;;;;;;0.40;0.40;;;6.50;99.90;;;;;;4956789;28;20210;-69
2022/11/19 02:14:22;;;;;;;0.40;0.40;;;6.50;99.90;;;;;;4956958;29;20179;-68
2022/11/19 02:17:15;;;;;;;0.30;0.30;;;6.60;99.90;;;;;;4956515;28;20206;-69
2022/11/19 02:20:09;;;;;;;0.30;0.30;;;6.70;99.90;;;;;;4956579;28;20184;-69
2022/11/19 02:22:56;;;;;;;0.30;0.30;;;6.70;99.90;;;;;;4956519;28;20182;-69
2022/11/19 02:25:30;;;;;;;0.40;0.40;;;6.70;99.90;;;;;;4956451;28;20195;-69
2022/11/19 02:28:13;;;;;;;0.40;0.40;;;6.70;99.90;;;;;;4956564;28;20171;-68
2022/11/19 02:30:43;;;;;;;0.35;0.35;;;6.90;99.90;;;;;;4956457;28;20308;-68
2022/11/19 02:33:41;;;;;;;0.40;0.40;;;6.90;99.90;;;;;;4956623;28;20177;-70
2022/11/19 02:36:32;;;;;;;0.30;0.30;;;7.00;99.90;;;;;;4956353;28;20196;-69
2022/11/19 02:39:19;;;;;;;0.40;0.40;;;6.90;99.90;;;;;;4956320;28;20183;-68
2022/11/19 02:41:58;;;;;;;0.30;0.30;;;7.00;99.90;;;;;;4956202;28;20188;-69
2022/11/19 02:47:26;;;;;;;0.30;0.30;;;7.00;99.90;;;;;;4956200;29;20716;-68
2022/11/19 02:49:56;;;;;;;0.30;0.30;;;7.00;99.90;;;;;;4955953;28;20591;-69
2022/11/19 02:52:22;;;;;;;0.75;0.75;;;7.10;99.90;;;;;;4956060;28;20192;-69
2022/11/19 02:54:47;;;;;;;0.40;0.40;;;7.20;99.90;;;;;;4955943;28;20625;-68
2022/11/19 02:57:13;;;;;;;0.40;0.40;;;7.20;99.90;;;;;;4956177;28;20195;-67
2022/11/19 03:05:20;;;;;;;0.60;0.60;;;7.10;99.90;;;;;;4955841;28;20245;-69
2022/11/19 03:07:47;;;;;;;0.50;0.50;;;7.10;99.90;;;;;;4955879;28;20249;-67
2022/11/19 03:10:15;;;;;;;0.30;0.30;;;7.00;99.90;;;;;;4955197;28;20183;-67
2022/11/19 03:12:49;;;;;;;0.38;0.38;;;7.10;99.90;;;;;;4956359;28;20175;-70
2022/11/19 03:18:36;;;;;;;0.40;0.40;;;7.10;99.90;;;;;;4956319;29;20250;-67
2022/11/19 03:21:15;;;;;;;0.30;0.30;;;7.00;99.90;;;;;;4955743;28;20179;-69
2022/11/19 03:24:03;;;;;;;0.30;0.30;;;7.00;99.90;;;;;;4955859;28;20179;-67
2022/11/19 03:26:34;;;;;;;0.30;0.30;;;6.90;99.90;;;;;;4955641;28;20199;-69
2022/11/19 03:29:06;;;;;;;0.30;0.30;;;6.90;99.90;;;;;;4955507;28;20193;-69
2022/11/19 03:31:34;;;;;;;1.52;1.52;;;6.90;99.90;;;;;;4955495;28;20179;-69
2022/11/19 03:34:06;;;;;;;0.40;0.40;;;7.00;99.90;;;;;;4955458;28;20179;-68
2022/11/19 03:36:36;;;;;;;0.60;0.60;;;7.00;99.90;;;;;;4955352;28;20785;-68
2022/11/19 03:39:07;;;;;;;0.38;0.38;;;6.90;99.90;;;;;;4955467;28;20245;-69
2022/11/19 03:41:35;;;;;;;0.30;0.30;;;6.80;99.90;;;;;;4955468;28;20174;-69
2022/11/19 03:44:09;;;;;;;0.30;0.30;;;6.70;99.90;;;;;;4955505;28;20177;-67
2022/11/19 03:46:37;;;;;;;0.30;0.30;;;6.70;99.90;;;;;;4954120;28;20204;-70
2022/11/19 03:49:05;;;;;;;0.40;0.40;;;6.50;99.90;;;;;;4955188;28;20185;-67
2022/11/19 03:51:54;;;;;;;0.82;0.82;;;6.40;99.90;;;;;;4955437;28;20604;-69
2022/11/19 03:54:20;;;;;;;0.35;0.35;;;6.40;99.90;;;;;;4955425;28;20177;-70
2022/11/19 03:56:46;;;;;;;0.30;0.30;;;6.40;99.90;;;;;;4955480;28;20698;-70
2022/11/19 03:59:12;;;;;;;0.32;0.32;;;6.40;99.90;;;;;;4955327;28;20245;-69
2022/11/19 04:01:38;;;;;;;0.40;0.40;;;6.40;99.90;;;;;;4955508;28;20208;-69
2022/11/19 04:06:48;;;;;;;0.65;0.65;;;6.30;99.90;;;;;;4955259;29;20186;-69
2022/11/19 04:09:14;;;;;;;0.30;0.30;;;6.30;99.90;;;;;;4955219;28;20166;-69
2022/11/19 04:11:39;;;;;;;1.73;1.63;;;6.40;99.90;;;;;;4955492;28;20171;-68
2022/11/19 04:14:05;;;;;;;0.40;0.40;;;6.40;99.90;;;;;;4955220;28;20189;-69
2022/11/19 04:16:31;;;;;;;0.40;0.40;;;6.40;99.90;;;;;;4954846;28;20209;-70
2022/11/19 04:18:56;;;;;;;0.30;0.30;;;6.50;99.90;;;;;;4954998;28;20188;-69
2022/11/19 04:21:22;;;;;;;0.73;0.73;;;6.50;99.90;;;;;;4956918;28;20176;-68
2022/11/19 04:23:48;;;;;;;0.40;0.40;;;6.60;99.90;;;;;;4958743;28;20181;-69
2022/11/19 04:26:13;;;;;;;0.40;0.40;;;6.50;99.90;;;;;;4958639;28;20241;-69
2022/11/19 04:28:39;;;;;;;0.30;0.30;;;6.50;99.90;;;;;;4958495;28;20250;-69
2022/11/19 04:31:05;;;;;;;0.40;0.40;;;6.50;99.90;;;;;;4958830;28;20176;-69
2022/11/19 04:33:31;;;;;;;0.30;0.30;;;6.60;99.90;;;;;;4958683;28;20217;-69
2022/11/19 04:35:56;;;;;;;0.40;0.40;;;6.80;99.90;;;;;;4958614;28;20199;-67
2022/11/19 04:38:22;;;;;;;0.30;0.30;;;6.80;99.90;;;;;;4958440;28;20231;-69
2022/11/19 04:40:47;;;;;;;0.33;0.33;;;6.90;99.90;;;;;;4958314;28;20179;-69
2022/11/19 04:43:13;;;;;;;0.90;0.90;;;6.90;99.90;;;;;;4958636;28;20554;-67
2022/11/19 04:45:39;;;;;;;0.30;0.30;;;6.90;99.90;;;;;;4958446;28;20194;-69
2022/11/19 04:48:04;;;;;;;0.40;0.40;;;6.90;99.90;;;;;;4957220;29;20219;-69
2022/11/19 04:50:30;;;;;;;0.30;0.30;;;6.90;99.90;;;;;;4958306;28;20180;-67
2022/11/19 04:52:56;;;;;;;0.30;0.30;;;6.90;99.90;;;;;;4958387;28;20414;-68
2022/11/19 04:55:21;;;;;;;0.30;0.30;;;6.90;99.90;;;;;;4958342;28;20191;-70
2022/11/19 04:57:50;;;;;;;0.30;0.30;;;7.00;99.90;;;;;;4958131;28;20206;-68
2022/11/19 05:00:16;;;;;;;0.40;0.40;;;7.20;99.90;;;;;;4957917;28;20164;-69
2022/11/19 05:02:42;;;;;;;0.30;0.30;;;7.20;99.90;;;;;;4958133;28;20207;-70
2022/11/19 05:05:08;;;;;;;0.30;0.30;;;7.20;99.90;;;;;;4958054;28;20274;-68
2022/11/19 05:07:33;;;;;;;0.40;0.40;;;7.10;99.90;;;;;;4957952;28;20411;-68
2022/11/19 05:09:59;;;;;;;0.40;0.40;;;7.10;99.90;;;;;;4957817;28;20329;-70
2022/11/19 05:12:25;;;;;;;0.30;0.30;;;7.10;99.90;;;;;;4957990;28;20202;-67
2022/11/19 05:14:50;;;;;;;0.50;0.47;;;7.10;99.90;;;;;;4957801;28;20652;-69
2022/11/19 05:17:16;;;;;;;0.77;0.77;;;7.00;99.90;;;;;;4957655;28;20221;-69
2022/11/19 05:19:41;;;;;;;0.30;0.30;;;6.90;99.90;;;;;;4957642;28;20173;-68
2022/11/19 05:22:08;;;;;;;0.70;0.68;;;6.80;99.90;;;;;;4957590;28;20202;-70
2022/11/19 05:24:34;;;;;;;1.80;0.70;;;6.80;99.90;;;;;;4957644;28;20257;-69
2022/11/19 05:26:59;;;;;;;1.07;0.77;;;6.70;99.90;;;;;;4957646;28;20647;-69
2022/11/19 05:29:25;;;;;;;0.30;0.30;;;6.60;99.90;;;;;;4957422;28;20205;-69
2022/11/19 05:31:51;;;;;;;0.40;0.40;;;6.70;99.90;;;;;;4957342;28;20270;-70
2022/11/19 05:34:16;;;;;;;0.40;0.40;;;6.70;99.90;;;;;;4956341;28;20262;-68
2022/11/19 05:36:42;;;;;;;0.60;0.60;;;6.70;99.90;;;;;;4957349;28;20700;-67
2022/11/19 05:39:08;;;;;;;0.37;0.37;;;6.70;99.90;;;;;;4957261;28;20193;-70
2022/11/19 05:41:33;;;;;;;0.40;0.40;;;6.60;99.90;;;;;;4957483;28;20597;-70
2022/11/19 05:43:59;;;;;;;0.40;0.40;;;6.50;99.90;;;;;;4957561;28;20534;-68
2022/11/19 05:46:24;;;;;;;0.40;0.40;;;6.60;99.90;;;;;;4957208;28;20199;-68
2022/11/19 05:48:50;;;;;;;0.40;0.40;;;6.70;99.90;;;;;;4957246;28;20175;-69
2022/11/19 05:51:16;;;;;;;0.30;0.30;;;6.70;99.90;;;;;;4957377;28;20178;-69
2022/11/19 05:53:42;;;;;;;0.30;0.30;;;6.80;99.90;;;;;;4957180;28;20182;-68
2022/11/19 05:56:08;;;;;;;0.30;0.30;;;6.70;99.90;;;;;;4955723;28;20238;-69
2022/11/19 05:58:33;;;;;;;0.30;0.30;;;6.70;99.90;;;;;;4955758;29;20214;-68
2022/11/19 06:00:59;;;;;;;1.10;0.77;;;6.80;99.90;;;;;;4955709;29;20856;-68
2022/11/19 06:03:25;;;;;;;0.37;0.37;;;6.80;99.90;;;;;;4957183;28;20250;-68
2022/11/19 06:05:51;;;;;;;0.50;0.40;;;6.80;99.90;;;;;;4956863;28;20194;-69
2022/11/19 06:08:17;;;;;;;0.50;0.50;;;6.90;99.90;;;;;;4955662;29;20187;-70
2022/11/19 06:10:43;;;;;;;0.40;0.40;;;6.90;99.90;;;;;;4956733;28;20185;-68
2022/11/19 06:13:09;;;;;;;0.40;0.40;;;6.90;99.90;;;;;;4957000;28;20178;-68
2022/11/19 06:15:35;;;;;;;0.70;0.70;;;7.00;99.90;;;;;;4956656;28;20197;-70
2022/11/19 06:18:00;;;;;;;0.60;0.60;;;6.90;99.90;;;;;;4955519;29;20269;-69
2022/11/19 06:20:26;;;;;;;0.50;0.50;;;6.90;99.90;;;;;;4956454;28;20247;-67
2022/11/19 06:22:52;;;;;;;0.33;0.33;;;6.80;99.90;;;;;;4956795;28;20225;-68
2022/11/19 06:25:17;;;;;;;0.70;0.70;;;6.80;99.90;;;;;;4956823;28;20250;-68
2022/11/19 06:27:43;;;;;;;0.40;0.40;;;6.90;99.90;;;;;;4956849;28;20534;-69
2022/11/19 06:30:12;;;;;;;0.57;0.57;;;6.90;99.90;;;;;;4956385;28;20182;-68
2022/11/19 06:32:37;;;;;;;0.32;0.32;;;7.00;99.90;;;;;;4956565;28;20243;-68
2022/11/19 06:35:03;;;;;;;0.63;0.63;;;7.00;99.90;;;;;;4956132;28;20194;-68
2022/11/19 06:37:29;;;;;;;0.40;0.40;;;7.00;99.90;;;;;;4956249;28;20704;-68
2022/11/19 06:39:55;;;;;;;0.40;0.40;;;7.10;99.90;;;;;;4956164;28;20434;-70
2022/11/19 06:42:36;;;;;;;0.40;0.40;;;7.10;99.90;;;;;;4956315;28;20442;-68
2022/11/19 06:45:11;;;;;;;0.50;0.50;;;7.20;99.90;;;;;;4955523;28;20269;-67
2022/11/19 06:47:38;;;;;;;0.50;0.50;;;7.20;99.90;;;;;;4956664;28;20166;-69
2022/11/19 06:50:05;;;;;;;0.30;0.30;;;7.10;99.90;;;;;;4955923;28;20648;-68
2022/11/19 06:52:31;;;;;;;0.40;0.40;;;7.00;99.90;;;;;;4956187;28;20183;-68
2022/11/19 06:54:56;;;;;;;0.30;0.30;;;6.90;99.90;;;;;;4956023;28;20202;-68
2022/11/19 06:57:22;;;;;;;0.50;0.50;;;6.80;99.90;;;;;;4956227;28;20553;-69
2022/11/19 06:59:48;;;;;;;0.47;0.47;;;6.70;99.90;;;;;;4955903;28;20175;-69
2022/11/19 07:02:13;;;;;;;0.33;0.33;;;6.50;99.90;;;;;;4955817;28;20173;-67
2022/11/19 07:04:39;;;;;;;1.63;0.50;;;6.50;99.90;;;;;;4955849;28;20225;-68
2022/11/19 07:07:05;;;;;;;0.50;0.50;;;6.40;99.90;;;;;;4955846;28;20173;-69
2022/11/19 07:09:31;;;;;;;0.30;0.30;;;6.40;99.90;;;;;;4955683;28;20167;-69
2022/11/19 07:11:57;;;;;;;1.05;0.65;;;6.40;99.90;;;;;;4955919;28;20182;-69
2022/11/19 07:14:22;;;;;;;0.40;0.40;;;6.60;99.90;;;;;;4955842;28;20186;-70
2022/11/19 07:16:48;;;;;;;0.30;0.30;;;6.70;99.90;;;;;;4955590;28;20768;-69
2022/11/19 07:19:14;;;;;;;0.40;0.40;;;6.80;99.90;;;;;;4955536;28;20545;-69
2022/11/19 07:21:40;;;;;;;0.77;0.77;;;6.70;99.90;;;;;;4955700;28;20544;-68
2022/11/19 07:24:07;;;;;;;0.40;0.40;;;6.70;99.90;;;;;;4955741;28;20198;-69
2022/11/19 07:26:34;;;;;;;0.50;0.50;;;6.70;99.90;;;;;;4955485;28;20438;-69
2022/11/19 07:29:01;;;;;;;0.60;0.60;;;6.80;99.90;;;;;;4955717;28;20186;-68
2022/11/19 07:31:27;;;;;;;0.30;0.30;;;7.00;99.90;;;;;;4955543;28;20183;-70
2022/11/19 07:33:53;;;;;;;0.55;0.45;;;7.20;99.90;;;;;;4955739;28;20277;-69
2022/11/19 07:36:19;;;;;;;0.60;0.60;;;7.40;99.90;;;;;;4954088;28;20306;-69
2022/11/19 07:38:45;;;;;;;0.50;0.50;;;7.50;99.90;;;;;;4955512;28;20231;-68
2022/11/19 07:43:55;;;;;;;1.00;1.00;;;7.60;99.90;;;;;;4955704;29;20526;-70
2022/11/19 07:46:22;;;;;;;0.77;0.77;;;7.60;99.90;;;;;;4955380;28;20204;-70
2022/11/19 07:48:54;;;;;;;0.68;0.68;;;7.70;99.90;;;;;;4955252;28;20180;-67
2022/11/19 07:51:21;;;;;;;4.00;0.77;;;7.80;99.90;;;;;;4955410;28;20637;-69
2022/11/19 07:53:46;;;;;;;0.40;0.40;;;7.80;99.90;;;;;;4955424;28;20202;-69
2022/11/19 07:56:12;;;;;;;0.30;0.30;;;7.90;99.90;;;;;;4958310;28;20242;-67
2022/11/19 07:58:38;;;;;;;0.50;0.50;;;7.80;99.90;;;;;;4959300;28;20177;-69
2022/11/19 08:01:17;;;;;;;0.40;0.40;;;7.70;99.90;;;;;;4959405;28;20247;-69
2022/11/19 08:03:45;;;;;;;0.40;0.40;;;7.60;99.90;;;;;;4959391;28;20212;-67
2022/11/19 08:06:11;;;;;;;0.30;0.30;;;7.70;99.90;;;;;;4959029;28;20278;-70
2022/11/19 08:08:37;;;;;;;0.40;0.40;;;7.50;99.90;;;;;;4959172;28;20206;-68
2022/11/19 08:11:05;;;;;;;0.50;0.50;;;7.50;99.90;;;;;;4958995;28;20664;-68
2022/11/19 08:13:31;;;;;;;7.05;2.08;;;7.60;99.90;;;;;;4959086;28;20202;-68
2022/11/19 08:16:01;;;;;;;0.93;0.93;;;7.70;99.90;;;;;;4958641;28;20281;-68
2022/11/19 08:18:27;;;;;;;1.30;1.20;;;7.70;99.90;;;;;;4959155;28;20180;-69
2022/11/19 08:20:53;;;;;;;0.65;0.65;;;7.80;99.90;;;;;;4958827;28;20186;-67
2022/11/19 08:23:19;;;;;;;0.40;0.40;;;7.80;99.90;;;;;;4959002;28;20565;-68
2022/11/19 08:25:45;;;;;;;2.60;1.33;;;7.80;99.90;;;;;;4958698;28;20506;-67
2022/11/19 08:28:11;;;;;;;0.40;0.40;;;7.80;99.90;;;;;;4958902;28;20409;-69
2022/11/19 08:30:41;;;;;;;1.02;0.93;;;7.90;99.90;;;;;;4958604;28;20231;-66
2022/11/19 08:33:07;;;;;;;0.55;0.55;;;7.90;99.90;;;;;;4958646;28;20548;-70
2022/11/19 08:35:34;;;;;;;0.30;0.30;;;7.90;99.90;;;;;;4958601;28;20192;-68
2022/11/19 08:37:59;;;;;;;0.68;0.60;;;7.90;99.90;;;;;;4958430;28;20581;-69
2022/11/19 08:40:26;;;;;;;0.97;0.97;;;8.00;99.90;;;;;;4958353;28;20168;-69
2022/11/19 08:43:00;;;;;;;0.98;0.98;;;8.00;99.90;;;;;;4958479;28;20233;-68
2022/11/19 08:45:27;;;;;;;1.50;1.50;;;8.10;99.90;;;;;;4958452;28;20199;-69
2022/11/19 08:47:54;;;;;;;1.23;0.85;;;8.20;99.90;;;;;;4958436;28;20205;-69
2022/11/19 08:50:21;;;;;;;2.28;1.27;;;8.20;99.90;;;;;;4958061;28;20186;-69
2022/11/19 08:52:52;;;;;;;0.95;0.57;;;8.10;99.90;;;;;;4958479;28;20526;-69
2022/11/19 08:55:18;;;;;;;0.30;0.30;;;8.10;99.90;;;;;;4958423;28;20564;-69
2022/11/19 08:57:44;;;;;;;2.93;0.87;;;8.00;99.30;;;;;;4958412;28;20204;-69
2022/11/19 09:00:10;;;;;;;0.43;0.43;;;7.90;99.50;;;;;;4957905;28;20175;-69
2022/11/19 09:02:35;;;;;;;0.88;0.52;;;8.00;99.60;;;;;;4958193;28;20180;-69
2022/11/19 09:05:01;;;;;;;0.50;0.50;;;8.10;99.90;;;;;;4957904;28;20204;-70
2022/11/19 09:07:27;;;;;;;0.30;0.30;;;8.20;99.90;;;;;;4957267;28;20184;-69
2022/11/19 09:09:53;;;;;;;1.83;1.15;;;8.40;99.90;;;;;;4957950;28;20187;-67
2022/11/19 09:12:18;;;;;;;0.30;0.30;;;8.60;99.10;;;;;;4957973;28;20236;-69
2022/11/19 09:14:44;;;;;;;0.60;0.60;;;8.80;98.30;;;;;;4956557;28;20810;-68
2022/11/19 09:17:09;;;;;;;0.50;0.50;;;8.90;98.10;;;;;;4957628;28;20228;-67
2022/11/19 09:19:35;;;;;;;0.30;0.30;;;9.00;97.80;;;;;;4956322;29;20639;-69
2022/11/19 09:22:01;;;;;;;0.37;0.37;;;9.00;97.10;;;;;;4958193;28;20170;-69
2022/11/19 09:24:26;;;;;;;0.43;0.43;;;8.90;97.50;;;;;;4957631;28;20177;-68
2022/11/19 09:26:52;;;;;;;0.40;0.40;;;9.00;98.20;;;;;;4957712;28;20177;-67
2022/11/19 09:29:18;;;;;;;1.50;1.10;;;8.80;97.90;;;;;;4957491;28;20177;-70
2022/11/19 09:31:43;;;;;;;0.30;0.30;;;8.80;98.10;;;;;;4957973;28;20169;-68
2022/11/19 09:34:09;;;;;;;0.50;0.50;;;9.10;98.00;;;;;;4956376;29;20236;-69
2022/11/19 09:36:34;;;;;;;0.60;0.60;;;9.30;97.80;;;;;;4957324;28;20201;-67
2022/11/19 09:39:01;;;;;;;0.40;0.40;;;9.60;97.90;;;;;;4957431;28;20628;-69
2022/11/19 09:41:36;;;;;;;0.98;0.98;;;10.30;97.00;;;;;;4957758;28;20173;-69
2022/11/19 09:44:27;;;;;;;0.37;0.37;;;11.30;94.50;;;;;;4957503;28;20181;-69
2022/11/19 09:47:14;;;;;;;4.53;0.93;;;12.00;92.90;;;;;;4957777;28;20778;-69
2022/11/19 09:49:59;;;;;;;0.60;0.60;;;12.00;91.60;;;;;;4957028;28;20496;-70
2022/11/19 09:52:29;;;;;;;0.30;0.30;;;11.20;92.60;;;;;;4957319;29;20186;-69
2022/11/19 09:54:56;;;;;;;0.40;0.40;;;10.30;93.70;;;;;;4957197;28;20212;-69
2022/11/19 09:57:35;;;;;;;0.30;0.30;;;10.10;93.20;;;;;;4957230;28;20212;-69
2022/11/19 10:00:03;;;;;;;0.30;0.30;;;10.10;93.90;;;;;;4957018;28;20244;-68
2022/11/19 10:02:29;;;;;;;0.70;0.70;;;10.10;93.60;;;;;;4956890;28;20182;-69
2022/11/19 10:04:55;;;;;;;0.40;0.40;;;10.20;93.40;;;;;;4956923;28;20272;-67
2022/11/19 10:07:20;;;;;;;1.00;1.00;;;10.10;93.40;;;;;;4956821;28;20488;-67
2022/11/19 10:09:53;;;;;;;0.63;0.47;;;10.00;93.90;;;;;;4956633;28;20412;-69
2022/11/19 10:12:38;;;;;;;0.30;0.30;;;10.20;94.40;;;;;;4956830;28;20209;-69
2022/11/19 10:15:24;;;;;;;0.40;0.40;;;10.00;93.70;;;;;;4956615;28;20621;-68
2022/11/19 10:18:11;;;;;;;0.40;0.40;;;9.60;94.60;;;;;;4955877;28;20209;-68
2022/11/19 10:20:55;;;;;;;0.50;0.50;;;9.60;95.30;;;;;;4956403;29;20180;-67
2022/11/19 10:23:35;;;;;;;0.45;0.40;;;9.80;95.40;;;;;;4956557;28;20173;-70
2022/11/19 10:26:10;;;;;;;0.30;0.30;;;9.90;96.00;;;;;;4956604;28;20190;-67
2022/11/19 10:28:39;;;;;;;0.40;0.40;;;10.00;95.30;;;;;;4956164;28;20177;-68
2022/11/19 10:31:21;;;;;;;0.40;0.40;;;10.20;95.30;;;;;;4956464;28;20185;-70
2022/11/19 10:33:46;;;;;;;0.50;0.50;;;10.70;95.00;;;;;;4956537;28;20658;-70
2022/11/19 10:36:26;;;;;;;1.07;0.93;;;11.30;93.60;;;;;;4956147;28;20197;-70
2022/11/19 10:39:09;;;;;;;0.60;0.47;;;11.60;92.00;;;;;;4956479;28;20177;-69
2022/11/19 10:41:50;;;;;;;0.40;0.40;;;11.70;91.60;;;;;;4956310;28;20173;-68
2022/11/19 10:44:36;;;;;;;0.90;0.90;;;11.70;91.20;;;;;;4955931;28;20170;-69
2022/11/19 10:47:21;;;;;;;1.08;0.98;;;11.50;91.40;;;;;;4956414;28;20162;-68
2022/11/19 10:49:54;;;;;;;0.30;0.30;;;11.30;91.90;;;;;;4955828;28;20177;-68
2022/11/19 10:52:26;;;;;;;0.40;0.40;;;11.10;91.80;;;;;;4956178;28;20177;-68
2022/11/19 10:54:57;;;;;;;0.50;0.50;;;11.10;92.10;;;;;;4955972;28;20263;-69
2022/11/19 10:57:24;;;;;;;0.52;0.52;;;11.40;92.00;;;;;;4955750;28;20221;-68
2022/11/19 10:59:52;;;;;;;0.30;0.30;;;11.40;91.60;;;;;;4955673;28;20181;-68
2022/11/19 11:02:28;;;;;;;0.70;0.70;;;11.60;91.40;;;;;;4955724;28;20169;-68
2022/11/19 11:05:04;;;;;;;0.30;0.30;;;11.60;91.90;;;;;;4955821;28;20197;-68
2022/11/19 11:07:50;;;;;;;0.30;0.30;;;11.50;91.70;;;;;;4955786;28;20161;-67
2022/11/19 11:10:44;;;;;;;0.75;0.75;;;11.50;91.40;;;;;;4954287;29;20324;-69
2022/11/19 11:16:10;;;;;;;0.35;0.35;;;11.50;92.30;;;;;;4955347;28;20243;-67
2022/11/19 11:18:39;;;;;;;0.30;0.30;;;11.50;92.20;;;;;;4955623;28;20165;-69
2022/11/19 11:21:11;;;;;;;0.53;0.53;;;11.40;91.50;;;;;;4955695;28;20472;-67
2022/11/19 11:23:48;;;;;;;0.40;0.40;;;11.30;91.90;;;;;;4955588;28;20407;-69
2022/11/19 11:26:19;;;;;;;0.87;0.87;;;11.50;92.30;;;;;;4955440;28;20432;-68
2022/11/19 11:29:12;;;;;;;1.13;1.03;;;11.60;92.50;;;;;;4955342;28;20901;-68
2022/11/19 11:31:41;;;;;;;0.40;0.40;;;11.30;91.60;;;;;;4955358;28;20401;-67
2022/11/19 11:34:27;;;;;;;0.60;0.60;;;11.20;92.00;;;;;;4955298;28;20177;-70
2022/11/19 11:36:54;;;;;;;0.95;0.95;;;11.10;92.20;;;;;;4955212;28;20232;-68
2022/11/19 11:39:29;;;;;;;0.30;0.30;;;11.00;92.20;;;;;;4955135;28;20180;-67
2022/11/19 11:41:56;;;;;;;0.40;0.40;;;10.90;92.40;;;;;;4955370;28;20525;-69
2022/11/19 11:44:26;;;;;;;0.63;0.63;;;10.80;92.40;;;;;;4955010;28;20177;-69
2022/11/19 11:46:52;;;;;;;0.30;0.30;;;10.70;93.00;;;;;;4955339;28;20586;-68
2022/11/19 11:49:29;;;;;;;1.67;0.52;;;10.60;92.30;;;;;;4955072;28;20671;-68
2022/11/19 11:52:22;;;;;;;13.95;2.40;;;10.50;92.50;;;;;;4955145;28;20181;-69
2022/11/19 11:55:14;;;;;;;0.30;0.30;;;10.30;93.00;;;;;;4949134;28;20582;-70
2022/11/19 11:57:56;;;;;;;0.30;0.30;;;10.30;93.50;;;;;;4955105;28;20194;-69
2022/11/19 12:00:30;;;;;;;0.40;0.40;;;10.50;93.00;;;;;;4955012;28;20176;-67
2022/11/19 12:02:59;;;;;;;1.38;1.10;;;10.60;92.90;;;;;;4955233;28;20174;-70
2022/11/19 12:05:29;;;;;;;0.30;0.30;;;10.70;92.80;;;;;;4955026;28;20193;-70
2022/11/19 12:08:12;;;;;;;0.30;0.30;;;10.70;92.80;;;;;;4955084;28;20196;-69
2022/11/19 12:10:52;;;;;;;0.43;0.40;;;10.80;92.70;;;;;;4954837;28;20173;-68
2022/11/19 12:13:54;;;;;;;0.70;0.70;;;10.70;92.20;;;;;;4955351;28;20670;-70
2022/11/19 12:16:54;;;;;;;0.55;0.55;;;10.60;92.60;;;;;;4954729;28;20217;-68
2022/11/19 12:19:46;;;;;;;0.40;0.40;;;10.50;93.60;;;;;;4955027;29;20197;-69
2022/11/19 12:22:36;;;;;;;0.30;0.30;;;10.30;93.50;;;;;;4955096;28;20528;-68
2022/11/19 12:25:13;;;;;;;0.30;0.30;;;10.40;93.30;;;;;;4955025;28;20530;-70
2022/11/19 12:28:46;;;;;;;0.80;0.80;;;10.50;93.80;;;;;;4954879;28;20204;-70
2022/11/19 12:31:21;;;;;;;0.30;0.30;;;10.60;93.30;;;;;;4865852;29;20649;-69
2022/11/19 12:33:54;;;;;;;0.40;0.40;;;10.60;93.10;;;;;;4943536;28;20185;-69
2022/11/19 12:37:00;;;;;;;0.35;0.35;;;10.60;93.30;;;;;;4954975;28;20590;-70
2022/11/19 12:39:45;;;;;;;0.30;0.30;;;10.50;93.70;;;;;;4941911;28;20182;-71
2022/11/19 12:42:30;;;;;;;0.40;0.40;;;10.50;94.00;;;;;;4956262;28;20185;-69
2022/11/19 12:45:04;;;;;;;0.60;0.60;;;10.30;94.00;;;;;;4958373;28;20190;-70
2022/11/19 12:47:52;;;;;;;0.40;0.40;;;9.90;93.70;;;;;;4958491;28;20173;-68
2022/11/19 12:50:44;;;;;;;0.68;0.52;;;9.50;94.30;;;;;;4958237;28;20165;-70
2022/11/19 12:53:31;;;;;;;0.30;0.30;;;9.20;95.30;;;;;;4957751;29;20193;-67
2022/11/19 12:56:19;;;;;;;0.40;0.40;;;9.10;95.60;;;;;;4958314;28;20197;-69
2022/11/19 12:59:40;;;;;;;0.30;0.30;;;9.00;96.50;;;;;;4958013;28;20172;-68
2022/11/19 13:02:38;;;;;;;0.30;0.30;;;8.70;97.00;;;;;;4899373;29;20184;-68
2022/11/19 13:05:11;;;;;;;0.30;0.30;;;8.60;98.80;;;;;;4928414;28;20209;-69
2022/11/19 13:07:44;;;;;;;0.40;0.40;;;8.40;97.30;;;;;;4958318;28;20192;-69
2022/11/19 13:10:23;;;;;;;0.30;0.30;;;8.10;98.10;;;;;;4956571;29;20187;-69
2022/11/19 13:12:53;;;;;;;0.30;0.30;;;8.20;99.10;;;;;;4958158;28;20272;-68
2022/11/19 13:15:24;;;;;;;0.30;0.30;;;8.50;99.40;;;;;;4957853;28;20258;-69
2022/11/19 13:17:53;;;;;;;0.50;0.50;;;8.80;99.00;;;;;;4957912;28;20741;-68
2022/11/19 13:20:30;;;;;;;0.40;0.40;;;9.00;98.80;;;;;;4956498;29;20655;-68
2022/11/19 13:23:04;;;;;;;0.30;0.30;;;9.20;98.70;;;;;;4958001;28;20256;-68
2022/11/19 13:25:50;;;;;;;1.63;1.52;;;9.40;98.50;;;;;;4956659;28;20284;-69
2022/11/19 13:28:53;;;;;;;0.40;0.40;;;9.60;98.00;;;;;;4958067;28;20165;-68
2022/11/19 13:31:41;;;;;;;0.30;0.30;;;9.90;97.70;;;;;;4939840;28;20192;-70
2022/11/19 13:34:34;;;;;;;0.40;0.40;;;9.90;97.20;;;;;;4958028;28;20176;-68
2022/11/19 13:37:03;;;;;;;0.40;0.40;;;10.00;96.20;;;;;;4957579;28;20582;-68